Terminal Aerodrome Forecast
Issued by NWS

Home | Current Version | Previous Version | Text Only | Print | Product List | Glossary On
Versions: 1 2 3 4 5 6 7 8 9 10 11 12 13 14 15 16 17 18 19 20 21 22 23 24 25 26 27 28 29 30 31
000
FTUS43 KPAH 221500 AAA
TAFOWB
TAF AMD
KOWB 221523Z 2215/2312 14008KT P6SM BKN012 OVC022
     FM221800 15012G18KT 5SM -SHRA BR OVC012
     FM222100 15014G22KT 4SM SHRA BR OVC008
     FM230500 18011KT 3SM -DZ BR OVC005
     FM230900 22010KT 5SM BR OVC004=

USA.gov is the U.S. government's official web portal to all federal, state and local government web resources and services.